createdAt,value
2016-11-23T00:00:39.498Z,6.37
2016-11-23T00:01:39.484Z,6.4
2016-11-23T00:02:39.474Z,6.33
2016-11-23T00:03:39.472Z,6.29
2016-11-23T00:04:39.455Z,6.21
2016-11-23T00:05:39.442Z,6.14
2016-11-23T00:06:39.424Z,6.1
2016-11-23T00:07:39.417Z,6.15
2016-11-23T00:08:39.438Z,6.05
2016-11-23T00:09:39.384Z,6.05
2016-11-23T00:10:39.375Z,5.92
2016-11-23T00:11:39.365Z,6
2016-11-23T00:12:39.347Z,5.91
2016-11-23T00:13:39.354Z,6.05
2016-11-23T00:14:39.331Z,6.07
2016-11-23T00:15:39.313Z,6.17
2016-11-23T00:16:39.301Z,6.28
2016-11-23T00:17:39.287Z,6.28
2016-11-23T00:18:39.279Z,6.26
2016-11-23T00:19:39.264Z,6.13
2016-11-23T00:20:39.256Z,6.18
2016-11-23T00:21:39.242Z,6.1
2016-11-23T00:22:39.226Z,6.13
2016-11-23T00:23:39.214Z,6.09
2016-11-23T00:24:39.204Z,6.02
2016-11-23T00:25:39.196Z,6
2016-11-23T00:26:39.208Z,6.02
2016-11-23T00:27:39.175Z,6.02
2016-11-23T00:28:39.156Z,6
2016-11-23T00:29:39.145Z,5.96
2016-11-23T00:30:39.136Z,5.95
2016-11-23T00:31:39.117Z,5.98
2016-11-23T00:32:39.107Z,6
2016-11-23T00:33:40.024Z,5.87
2016-11-23T00:34:39.090Z,5.75
2016-11-23T00:35:39.075Z,5.75
2016-11-23T00:36:39.061Z,5.82
2016-11-23T00:37:39.048Z,5.77
2016-11-23T00:38:39.037Z,5.64
2016-11-23T00:39:39.028Z,5.55
2016-11-23T00:40:39.012Z,5.54
2016-11-23T00:41:38.999Z,5.57
2016-11-23T00:42:38.992Z,5.49
2016-11-23T00:43:38.977Z,5.42
2016-11-23T00:44:38.967Z,5.36
2016-11-23T00:45:38.948Z,5.33
2016-11-23T00:46:38.938Z,5.27
2016-11-23T00:47:38.957Z,5.2
2016-11-23T00:48:38.912Z,5.13
2016-11-23T00:49:38.901Z,5.16
2016-11-23T00:50:38.935Z,5.24
2016-11-23T00:51:38.880Z,5.13
2016-11-23T00:52:38.865Z,5.1
2016-11-23T00:53:38.849Z,5.13
2016-11-23T00:54:38.837Z,5.15
2016-11-23T00:55:38.824Z,5.08
2016-11-23T00:56:38.813Z,5.09
2016-11-23T00:57:38.797Z,5.05
2016-11-23T00:58:38.792Z,5.08
2016-11-23T00:59:38.780Z,5.03
2016-11-23T01:00:38.766Z,5.05
2016-11-23T01:01:38.754Z,5
2016-11-23T01:02:38.751Z,5.02
2016-11-23T01:03:38.729Z,4.98
2016-11-23T01:04:38.711Z,5
2016-11-23T01:05:38.699Z,4.94
2016-11-23T01:06:38.692Z,4.95
2016-11-23T01:07:38.689Z,4.94
2016-11-23T01:08:38.675Z,4.97
2016-11-23T01:09:38.655Z,4.98
2016-11-23T01:10:38.642Z,4.91
2016-11-23T01:11:38.633Z,4.92
2016-11-23T01:12:38.625Z,4.92
2016-11-23T01:13:38.609Z,4.88
2016-11-23T01:14:38.604Z,4.94
2016-11-23T01:15:38.631Z,5.05
2016-11-23T01:16:38.568Z,5.08
2016-11-23T01:17:38.562Z,5.03
2016-11-23T01:18:38.560Z,5
2016-11-23T01:19:38.539Z,4.92
2016-11-23T01:20:38.513Z,4.91
2016-11-23T01:21:38.544Z,4.84
2016-11-23T01:22:38.562Z,4.75
2016-11-23T01:23:38.486Z,4.66
2016-11-23T01:24:38.474Z,4.64
2016-11-23T01:25:38.455Z,4.57
2016-11-23T01:26:38.444Z,4.5
2016-11-23T01:27:38.426Z,4.48
2016-11-23T01:28:38.412Z,4.44
2016-11-23T01:29:38.398Z,4.38
2016-11-23T01:30:38.384Z,4.36
2016-11-23T01:31:38.390Z,4.38
2016-11-23T01:32:38.402Z,4.26
2016-11-23T01:33:38.348Z,4.26
2016-11-23T01:34:38.849Z,4.28
2016-11-23T01:35:38.695Z,4.2
2016-11-23T01:36:38.308Z,4.08
2016-11-23T01:37:38.300Z,4.11
2016-11-23T01:38:38.282Z,3.96
2016-11-23T01:39:38.269Z,3.93
2016-11-23T01:40:38.254Z,3.93
2016-11-23T01:41:38.560Z,3.97
2016-11-23T01:42:38.227Z,3.94
2016-11-23T01:43:38.218Z,3.92
2016-11-23T01:44:38.232Z,3.96
2016-11-23T01:45:38.190Z,3.92
2016-11-23T01:46:38.176Z,3.94
2016-11-23T01:47:38.168Z,3.82
2016-11-23T01:48:38.148Z,3.84
2016-11-23T01:49:38.141Z,3.92
2016-11-23T01:50:38.123Z,3.81
2016-11-23T01:51:38.107Z,3.85
2016-11-23T01:52:38.096Z,3.81
2016-11-23T01:53:38.083Z,3.84
2016-11-23T01:54:38.066Z,3.86
2016-11-23T01:55:38.055Z,3.76
2016-11-23T01:56:38.073Z,3.74
2016-11-23T01:57:38.029Z,3.74
2016-11-23T01:58:38.015Z,3.75
2016-11-23T01:59:38.001Z,3.67
2016-11-23T02:00:37.988Z,3.67
2016-11-23T02:01:37.978Z,3.63
2016-11-23T02:02:37.990Z,3.71
2016-11-23T02:03:37.959Z,3.6
2016-11-23T02:04:37.932Z,3.6
2016-11-23T02:05:37.927Z,3.58
2016-11-23T02:06:37.903Z,3.57
2016-11-23T02:07:37.926Z,3.57
2016-11-23T02:08:37.880Z,3.49
2016-11-23T02:09:37.866Z,3.51
2016-11-23T02:10:37.854Z,3.39
2016-11-23T02:11:37.908Z,3.4
2016-11-23T02:12:37.826Z,3.4
2016-11-23T02:13:37.811Z,3.37
2016-11-23T02:14:37.800Z,3.48
2016-11-23T02:15:37.782Z,3.42
2016-11-23T02:16:37.772Z,3.42
2016-11-23T02:17:37.756Z,3.35
2016-11-23T02:18:37.741Z,3.42
2016-11-23T02:19:38.043Z,3.43
2016-11-23T02:20:37.713Z,3.45
2016-11-23T02:21:37.699Z,3.46
2016-11-23T02:22:37.688Z,3.46
2016-11-23T02:23:37.679Z,3.53
2016-11-23T02:24:37.658Z,3.49
2016-11-23T02:25:37.646Z,3.48
2016-11-23T02:26:37.637Z,3.46
2016-11-23T02:27:37.618Z,3.53
2016-11-23T02:28:37.603Z,3.48
2016-11-23T02:29:37.589Z,3.53
2016-11-23T02:30:37.576Z,3.49
2016-11-23T02:31:37.564Z,3.58
2016-11-23T02:32:37.547Z,3.46
2016-11-23T02:33:37.537Z,3.51
2016-11-23T02:34:37.520Z,3.61
2016-11-23T02:35:37.506Z,3.63
2016-11-23T02:36:37.504Z,3.63
2016-11-23T02:37:37.480Z,3.66
2016-11-23T02:38:37.467Z,3.66
2016-11-23T02:39:37.453Z,3.64
2016-11-23T02:40:37.440Z,3.69
2016-11-23T02:41:37.426Z,3.74
2016-11-23T02:42:37.412Z,3.79
2016-11-23T02:43:37.396Z,3.61
2016-11-23T02:44:37.386Z,3.64
2016-11-23T02:45:37.373Z,3.74
2016-11-23T02:46:37.355Z,3.69
2016-11-23T02:47:37.343Z,3.61
2016-11-23T02:48:37.329Z,3.57
2016-11-23T02:49:37.316Z,3.71
2016-11-23T02:50:37.300Z,3.61
2016-11-23T02:51:37.287Z,3.64
2016-11-23T02:52:37.276Z,3.48
2016-11-23T02:53:37.261Z,3.51
2016-11-23T02:54:37.246Z,3.53
2016-11-23T02:55:37.229Z,3.51
2016-11-23T02:56:37.218Z,3.53
2016-11-23T02:57:37.231Z,3.53
2016-11-23T02:58:37.187Z,3.56
2016-11-23T02:59:37.174Z,3.49
2016-11-23T03:00:37.161Z,3.53
2016-11-23T03:01:37.195Z,3.43
2016-11-23T03:02:37.134Z,3.58
2016-11-23T03:03:37.122Z,3.53
2016-11-23T03:04:37.108Z,3.51
2016-11-23T03:05:37.100Z,3.51
2016-11-23T03:06:37.113Z,3.56
2016-11-23T03:07:37.065Z,3.43
2016-11-23T03:08:37.051Z,3.54
2016-11-23T03:09:37.039Z,3.56
2016-11-23T03:10:37.023Z,3.53
2016-11-23T03:11:37.038Z,3.6
2016-11-23T03:12:36.993Z,3.53
2016-11-23T03:13:36.986Z,3.51
2016-11-23T03:14:36.964Z,3.48
2016-11-23T03:15:36.953Z,3.54
2016-11-23T03:16:36.938Z,3.51
2016-11-23T03:17:36.931Z,3.61
2016-11-23T03:18:36.913Z,3.63
2016-11-23T03:19:36.897Z,3.67
2016-11-23T03:20:36.883Z,3.76
2016-11-23T03:21:36.873Z,3.74
2016-11-23T03:22:36.859Z,3.82
2016-11-23T03:23:36.847Z,3.92
2016-11-23T03:24:36.826Z,3.96
2016-11-23T03:25:36.815Z,3.99
2016-11-23T03:26:36.803Z,4.08
2016-11-23T03:27:36.790Z,4.03
2016-11-23T03:28:36.775Z,4.1
2016-11-23T03:29:36.763Z,4.14
2016-11-23T03:30:36.760Z,4.08
2016-11-23T03:31:36.730Z,4.14
2016-11-23T03:32:36.719Z,4.17
2016-11-23T03:33:36.705Z,4.18
2016-11-23T03:34:36.694Z,4.11
2016-11-23T03:35:36.676Z,4.11
2016-11-23T03:36:36.669Z,4.11
2016-11-23T03:37:36.650Z,4.14
2016-11-23T03:38:36.637Z,4.11
2016-11-23T03:39:36.626Z,4.2
2016-11-23T03:40:36.611Z,4.18
2016-11-23T03:41:36.597Z,4.14
2016-11-23T03:42:36.586Z,4.24
2016-11-23T03:43:36.570Z,4.15
2016-11-23T03:44:36.559Z,4.3
2016-11-23T03:45:36.542Z,4.24
2016-11-23T03:46:36.531Z,4.2
2016-11-23T03:47:36.539Z,4.21
2016-11-23T03:48:36.499Z,4.12
2016-11-23T03:49:36.511Z,4.18
2016-11-23T03:50:36.488Z,4.14
2016-11-23T03:51:36.474Z,4.15
2016-11-23T03:52:36.443Z,4.15
2016-11-23T03:53:36.465Z,4.17
2016-11-23T03:54:36.433Z,4.18
2016-11-23T03:55:36.407Z,4.17
2016-11-23T03:56:36.410Z,4.2
2016-11-23T03:57:36.389Z,4.24
2016-11-23T03:58:36.380Z,4.26
2016-11-23T03:59:36.346Z,4.29
2016-11-23T04:00:36.365Z,4.29
2016-11-23T04:01:36.326Z,4.29
2016-11-23T04:02:36.325Z,4.29
2016-11-23T04:03:36.311Z,4.28
2016-11-23T04:04:36.285Z,4.35
2016-11-23T04:05:36.269Z,4.36
2016-11-23T04:06:36.259Z,4.32
2016-11-23T04:07:36.243Z,4.4
2016-11-23T04:08:36.230Z,4.47
2016-11-23T04:09:36.217Z,4.42
2016-11-23T04:10:36.202Z,4.42
2016-11-23T04:11:36.192Z,4.46
2016-11-23T04:12:36.173Z,4.39
2016-11-23T04:13:36.166Z,4.4
2016-11-23T04:14:36.154Z,4.46
2016-11-23T04:15:36.136Z,4.32
2016-11-23T04:16:36.125Z,4.36
2016-11-23T04:17:36.111Z,4.33
2016-11-23T04:18:36.095Z,4.33
2016-11-23T04:19:36.083Z,4.3
2016-11-23T04:20:36.100Z,4.32
2016-11-23T04:21:36.055Z,4.26
2016-11-23T04:22:36.045Z,4.26
2016-11-23T04:23:36.028Z,4.3
2016-11-23T04:24:36.047Z,4.3
2016-11-23T04:25:35.999Z,4.3
2016-11-23T04:26:35.991Z,4.38
2016-11-23T04:27:35.987Z,4.32
2016-11-23T04:28:35.964Z,4.35
2016-11-23T04:29:35.948Z,4.33
2016-11-23T04:30:35.937Z,4.26
2016-11-23T04:31:35.937Z,4.36
2016-11-23T04:32:35.907Z,4.36
2016-11-23T04:33:35.896Z,4.39
2016-11-23T04:34:35.879Z,4.35
2016-11-23T04:35:35.867Z,4.4
2016-11-23T04:36:35.857Z,4.53
2016-11-23T04:37:35.838Z,4.57
2016-11-23T04:38:35.830Z,4.5
2016-11-23T04:39:35.816Z,4.61
2016-11-23T04:40:35.806Z,4.66
2016-11-23T04:41:35.841Z,4.69
2016-11-23T04:42:35.774Z,4.76
2016-11-23T04:43:35.760Z,4.92
2016-11-23T04:44:35.755Z,4.92
2016-11-23T04:45:35.765Z,5.12
2016-11-23T04:46:35.725Z,5.12
2016-11-23T04:47:35.706Z,5.15
2016-11-23T04:48:35.700Z,5.16
2016-11-23T04:49:35.684Z,5.26
2016-11-23T04:50:35.673Z,5.21
2016-11-23T04:51:35.660Z,5.21
2016-11-23T04:52:35.644Z,5.15
2016-11-23T04:53:35.955Z,5.16
2016-11-23T04:54:35.617Z,5.15
2016-11-23T04:55:35.603Z,4.98
2016-11-23T04:56:35.592Z,5.06
2016-11-23T04:57:35.580Z,5.12
2016-11-23T04:58:35.564Z,4.94
2016-11-23T04:59:35.555Z,4.92
2016-11-23T05:00:35.540Z,4.94
2016-11-23T05:01:35.529Z,4.92
2016-11-23T05:02:35.555Z,4.94
2016-11-23T05:03:35.497Z,4.87
2016-11-23T05:04:35.486Z,4.84
2016-11-23T05:05:35.475Z,4.88
2016-11-23T05:06:35.662Z,4.85
2016-11-23T05:07:35.452Z,4.85
2016-11-23T05:08:35.435Z,4.83
2016-11-23T05:09:35.426Z,4.84
2016-11-23T05:10:35.410Z,4.83
2016-11-23T05:11:35.400Z,4.83
2016-11-23T05:12:35.384Z,4.87
2016-11-23T05:13:35.685Z,4.95
2016-11-23T05:14:35.357Z,5.05
2016-11-23T05:15:35.346Z,5.05
2016-11-23T05:16:35.331Z,5.21
2016-11-23T05:17:35.319Z,5.18
2016-11-23T05:18:35.306Z,5.27
2016-11-23T05:19:35.293Z,5.41
2016-11-23T05:20:35.282Z,5.31
2016-11-23T05:21:35.270Z,5.39
2016-11-23T05:22:35.255Z,5.37
2016-11-23T05:23:35.246Z,5.44
2016-11-23T05:24:35.230Z,5.45
2016-11-23T05:25:35.219Z,5.39
2016-11-23T05:26:35.206Z,5.33
2016-11-23T05:27:35.189Z,5.36
2016-11-23T05:28:35.178Z,5.42
2016-11-23T05:29:35.162Z,5.44
2016-11-23T05:30:35.151Z,5.39
2016-11-23T05:31:35.140Z,5.34
2016-11-23T05:32:35.124Z,5.45
2016-11-23T05:33:35.114Z,5.45
2016-11-23T05:34:35.098Z,5.57
2016-11-23T05:35:35.090Z,5.6
2016-11-23T05:36:35.073Z,5.51
2016-11-23T05:37:35.063Z,5.66
2016-11-23T05:38:35.062Z,5.72
2016-11-23T05:39:35.037Z,5.67
2016-11-23T05:40:35.024Z,5.73
2016-11-23T05:41:35.009Z,5.7
2016-11-23T05:42:34.999Z,5.72
2016-11-23T05:43:34.983Z,5.8
2016-11-23T05:44:34.972Z,5.75
2016-11-23T05:45:34.962Z,5.8
2016-11-23T05:46:35.266Z,5.8
2016-11-23T05:47:34.933Z,5.75
2016-11-23T05:48:34.928Z,5.77
2016-11-23T05:49:34.909Z,5.85
2016-11-23T05:50:34.896Z,5.84
2016-11-23T05:51:34.885Z,5.8
2016-11-23T05:52:35.189Z,5.89
2016-11-23T05:53:34.859Z,5.96
2016-11-23T05:54:34.844Z,5.88
2016-11-23T05:55:34.839Z,5.87
2016-11-23T05:56:34.819Z,5.99
2016-11-23T05:57:34.805Z,5.98
2016-11-23T05:58:34.798Z,5.91
2016-11-23T05:59:34.781Z,5.84
2016-11-23T06:00:34.772Z,5.92
2016-11-23T06:01:34.755Z,5.78
2016-11-23T06:02:34.756Z,5.81
2016-11-23T06:03:34.733Z,5.82
2016-11-23T06:04:34.717Z,5.73
2016-11-23T06:05:34.710Z,5.69
2016-11-23T06:06:34.693Z,5.69
2016-11-23T06:07:34.711Z,5.59
2016-11-23T06:08:34.669Z,5.63
2016-11-23T06:09:34.658Z,5.48
2016-11-23T06:10:34.644Z,5.49
2016-11-23T06:11:34.631Z,5.51
2016-11-23T06:12:34.620Z,5.45
2016-11-23T06:13:34.604Z,5.36
2016-11-23T06:14:34.593Z,5.39
2016-11-23T06:15:34.580Z,5.33
2016-11-23T06:16:34.571Z,5.28
2016-11-23T06:17:34.556Z,5.27
2016-11-23T06:18:34.554Z,5.13
2016-11-23T06:19:34.530Z,5.18
2016-11-23T06:20:34.521Z,5.15
2016-11-23T06:21:34.508Z,5.18
2016-11-23T06:22:34.489Z,5.09
2016-11-23T06:23:34.481Z,5.13
2016-11-23T06:24:34.501Z,5.09
2016-11-23T06:25:34.457Z,5.08
2016-11-23T06:26:34.447Z,5.02
2016-11-23T06:27:34.429Z,4.97
2016-11-23T06:28:34.737Z,4.9
2016-11-23T06:29:34.408Z,5
2016-11-23T06:30:34.394Z,4.95
2016-11-23T06:31:34.380Z,4.92
2016-11-23T06:32:34.372Z,4.94
2016-11-23T06:33:34.356Z,4.92
2016-11-23T06:34:34.346Z,4.92
2016-11-23T06:35:34.402Z,5.03
2016-11-23T06:36:34.568Z,4.97
2016-11-23T06:37:34.303Z,4.98
2016-11-23T06:38:34.293Z,5
2016-11-23T06:39:34.279Z,4.9
2016-11-23T06:40:34.263Z,4.97
2016-11-23T06:41:34.289Z,5
2016-11-23T06:42:34.244Z,4.95
2016-11-23T06:43:34.227Z,5.02
2016-11-23T06:44:34.218Z,4.94
2016-11-23T06:45:34.201Z,4.94
2016-11-23T06:46:34.196Z,4.97
2016-11-23T06:47:34.176Z,4.95
2016-11-23T06:48:34.167Z,4.91
2016-11-23T06:49:34.152Z,4.91
2016-11-23T06:50:34.140Z,5
2016-11-23T06:51:34.128Z,4.98
2016-11-23T06:52:34.116Z,5.13
2016-11-23T06:53:34.101Z,5.09
2016-11-23T06:54:34.086Z,5.16
2016-11-23T06:55:34.080Z,5.24
2016-11-23T06:56:34.069Z,5.18
2016-11-23T06:57:34.050Z,5.15
2016-11-23T06:58:34.037Z,5.2
2016-11-23T06:59:34.056Z,5.31
2016-11-23T07:00:34.140Z,5.23
2016-11-23T07:01:34.003Z,5.15
2016-11-23T07:02:33.987Z,5.31
2016-11-23T07:03:33.975Z,5.36
2016-11-23T07:04:33.962Z,5.41
2016-11-23T07:05:33.951Z,5.44
2016-11-23T07:06:33.940Z,5.44
2016-11-23T07:07:33.921Z,5.33
2016-11-23T07:08:33.916Z,5.33
2016-11-23T07:09:33.901Z,5.41
2016-11-23T07:10:33.883Z,5.37
2016-11-23T07:11:33.873Z,5.37
2016-11-23T07:12:33.860Z,5.33
2016-11-23T07:13:33.848Z,5.37
2016-11-23T07:14:33.836Z,5.44
2016-11-23T07:15:33.820Z,5.54
2016-11-23T07:16:33.813Z,5.42
2016-11-23T07:17:33.798Z,5.46
2016-11-23T07:18:33.781Z,5.48
2016-11-23T07:19:33.773Z,5.55
2016-11-23T07:20:33.757Z,5.57
2016-11-23T07:21:33.749Z,5.6
2016-11-23T07:22:33.743Z,5.63
2016-11-23T07:23:33.721Z,5.6
2016-11-23T07:24:33.708Z,5.57
2016-11-23T07:25:33.696Z,5.67
2016-11-23T07:26:33.685Z,5.7
2016-11-23T07:27:33.671Z,5.69
2016-11-23T07:28:33.659Z,5.7
2016-11-23T07:29:33.648Z,5.7
2016-11-23T07:30:33.633Z,5.7
2016-11-23T07:31:33.655Z,5.63
2016-11-23T07:32:33.606Z,5.69
2016-11-23T07:33:33.616Z,5.62
2016-11-23T07:34:33.586Z,5.69
2016-11-23T07:35:33.571Z,5.67
2016-11-23T07:36:33.558Z,5.72
2016-11-23T07:37:33.545Z,5.75
2016-11-23T07:38:33.538Z,5.73
2016-11-23T07:39:33.520Z,5.78
2016-11-23T07:40:33.511Z,5.73
2016-11-23T07:41:33.494Z,5.77
2016-11-23T07:42:33.490Z,5.87
2016-11-23T07:43:33.471Z,5.84
2016-11-23T07:44:33.461Z,5.75
2016-11-23T07:45:33.446Z,5.8
2016-11-23T07:46:33.437Z,5.84
2016-11-23T07:47:33.419Z,5.84
2016-11-23T07:48:33.410Z,5.84
2016-11-23T07:49:33.395Z,5.8
2016-11-23T07:50:33.385Z,5.77
2016-11-23T07:51:33.373Z,5.75
2016-11-23T07:52:33.362Z,5.81
2016-11-23T07:53:33.347Z,5.75
2016-11-23T07:54:33.339Z,5.87
2016-11-23T07:55:33.322Z,6
2016-11-23T07:56:33.307Z,5.87
2016-11-23T07:57:33.299Z,5.92
2016-11-23T07:58:33.290Z,5.96
2016-11-23T07:59:33.272Z,6.09
2016-11-23T08:00:33.262Z,6.05
2016-11-23T08:01:33.255Z,6.07
2016-11-23T08:02:33.237Z,6.1
2016-11-23T08:03:33.228Z,6.13
2016-11-23T08:04:33.214Z,6.1
2016-11-23T08:05:33.200Z,6.15
2016-11-23T08:06:33.191Z,6.07
2016-11-23T08:07:33.176Z,6.15
2016-11-23T08:08:33.167Z,6.18
2016-11-23T08:09:33.152Z,6.28
2016-11-23T08:10:33.140Z,6.17
2016-11-23T08:11:33.132Z,6.33
2016-11-23T08:12:33.117Z,6.28
2016-11-23T08:13:33.106Z,6.26
2016-11-23T08:14:33.116Z,6.37
2016-11-23T08:15:33.082Z,6.39
2016-11-23T08:16:33.074Z,6.4
2016-11-23T08:17:33.055Z,6.43
2016-11-23T08:18:33.046Z,6.51
2016-11-23T08:19:33.035Z,6.49
2016-11-23T08:20:33.026Z,6.52
2016-11-23T08:21:33.007Z,6.55
2016-11-23T08:22:32.998Z,6.55
2016-11-23T08:23:32.985Z,6.68
2016-11-23T08:24:32.972Z,6.83
2016-11-23T08:25:32.961Z,6.83
2016-11-23T08:26:32.949Z,6.9
2016-11-23T08:27:32.935Z,6.98
2016-11-23T08:28:32.930Z,6.9
2016-11-23T08:29:32.914Z,6.91
2016-11-23T08:30:32.903Z,6.9
2016-11-23T08:31:32.891Z,6.8
2016-11-23T08:32:32.878Z,6.86
2016-11-23T08:33:32.870Z,6.78
2016-11-23T08:34:32.855Z,6.82
2016-11-23T08:35:32.849Z,6.73
2016-11-23T08:36:32.833Z,6.68
2016-11-23T08:37:32.817Z,6.72
2016-11-23T08:38:32.810Z,6.7
2016-11-23T08:39:32.806Z,6.57
2016-11-23T08:40:32.787Z,6.58
2016-11-23T08:41:32.775Z,6.57
2016-11-23T08:42:32.766Z,6.61
2016-11-23T08:43:32.753Z,6.55
2016-11-23T08:44:32.748Z,6.61
2016-11-23T08:45:32.731Z,6.54
2016-11-23T08:46:32.724Z,6.58
2016-11-23T08:47:32.705Z,6.58
2016-11-23T08:48:33.008Z,6.65
2016-11-23T08:49:32.684Z,6.65
2016-11-23T08:50:32.672Z,6.64
2016-11-23T08:51:32.662Z,6.78
2016-11-23T08:52:32.648Z,6.79
2016-11-23T08:53:32.641Z,6.8
2016-11-23T08:54:32.626Z,6.88
2016-11-23T08:55:32.622Z,6.86
2016-11-23T08:56:32.603Z,6.94
2016-11-23T08:57:32.590Z,7.08
2016-11-23T08:58:32.582Z,7.11
2016-11-23T08:59:32.568Z,7.08
2016-11-23T09:00:32.559Z,7.23
2016-11-23T09:01:32.547Z,7.26
2016-11-23T09:02:32.536Z,7.33
2016-11-23T09:03:32.526Z,7.45
2016-11-23T09:04:32.514Z,7.39
2016-11-23T09:05:32.499Z,7.44
2016-11-23T09:06:32.494Z,7.55
2016-11-23T09:07:32.486Z,7.7
2016-11-23T09:08:32.471Z,7.77
2016-11-23T09:09:32.459Z,7.95
2016-11-23T09:10:32.445Z,8.01
2016-11-23T09:11:32.435Z,8.19
2016-11-23T09:12:32.424Z,8.25
2016-11-23T09:13:32.411Z,8.39
2016-11-23T09:14:32.403Z,8.5
2016-11-23T09:15:32.427Z,8.69
2016-11-23T09:16:32.381Z,8.83
2016-11-23T09:17:32.370Z,8.94
2016-11-23T09:18:32.359Z,8.97
2016-11-23T09:19:32.351Z,9.17
2016-11-23T09:20:32.340Z,9.35
2016-11-23T09:21:32.328Z,9.45
2016-11-23T09:22:32.319Z,9.5
2016-11-23T09:23:32.309Z,9.6
2016-11-23T09:24:32.299Z,9.66
2016-11-23T09:25:32.287Z,9.71
2016-11-23T09:26:32.281Z,9.93
2016-11-23T09:27:32.267Z,9.92
2016-11-23T09:28:32.262Z,9.93
2016-11-23T09:29:32.259Z,10.05
2016-11-23T09:30:32.245Z,10.1
2016-11-23T09:31:32.229Z,10.02
2016-11-23T09:32:32.222Z,10.08
2016-11-23T09:33:32.218Z,10.17
2016-11-23T09:34:32.202Z,10.2
2016-11-23T09:35:32.204Z,10.18
2016-11-23T09:36:32.187Z,10.21
2016-11-23T09:37:32.173Z,10.25
2016-11-23T09:38:32.166Z,10.26
2016-11-23T09:39:32.156Z,10.28
2016-11-23T09:40:32.146Z,10.38
2016-11-23T09:41:32.137Z,10.31
2016-11-23T09:42:32.127Z,10.46
2016-11-23T09:43:32.118Z,10.54
2016-11-23T09:44:32.110Z,10.51
2016-11-23T09:45:32.109Z,10.54
2016-11-23T09:46:32.090Z,10.61
2016-11-23T09:47:32.085Z,10.7
2016-11-23T09:48:32.077Z,10.61
2016-11-23T09:49:32.065Z,10.66
2016-11-23T09:50:32.055Z,10.69
2016-11-23T09:51:32.050Z,10.83
2016-11-23T09:52:32.039Z,10.91
2016-11-23T09:53:32.032Z,10.91
2016-11-23T09:54:32.021Z,10.91
2016-11-23T09:55:32.012Z,10.91
2016-11-23T09:56:32.005Z,10.9
2016-11-23T09:57:31.993Z,10.87
2016-11-23T09:58:31.992Z,10.87
2016-11-23T09:59:31.976Z,10.76
2016-11-23T10:00:31.995Z,10.75
2016-11-23T10:01:31.964Z,10.88
2016-11-23T10:02:31.960Z,10.87
2016-11-23T10:03:31.962Z,10.91
2016-11-23T10:04:31.940Z,10.97
2016-11-23T10:05:31.932Z,10.95
2016-11-23T10:06:32.031Z,11.02
2016-11-23T10:07:31.911Z,11.02
2016-11-23T10:08:32.098Z,11.13
2016-11-23T10:09:31.951Z,11.13
2016-11-23T10:10:31.893Z,11.2
2016-11-23T10:11:31.881Z,11.26
2016-11-23T10:12:31.872Z,11.34
2016-11-23T10:13:31.860Z,11.48
2016-11-23T10:14:32.173Z,11.45
2016-11-23T10:15:31.844Z,11.42
2016-11-23T10:16:32.041Z,11.51
2016-11-23T10:17:31.834Z,11.59
2016-11-23T10:18:31.823Z,11.56
2016-11-23T10:19:31.820Z,11.56
2016-11-23T10:20:31.804Z,11.59
2016-11-23T10:21:31.810Z,11.56
2016-11-23T10:22:31.800Z,11.53
2016-11-23T10:23:31.782Z,11.56
2016-11-23T10:24:31.773Z,11.61
2016-11-23T10:25:31.791Z,11.48
2016-11-23T10:26:31.759Z,11.43
2016-11-23T10:27:31.752Z,11.41
2016-11-23T10:28:31.746Z,11.42
2016-11-23T10:29:31.740Z,11.41
2016-11-23T10:30:31.729Z,11.34
2016-11-23T10:31:31.718Z,11.28
2016-11-23T10:32:31.713Z,11.27
2016-11-23T10:33:31.709Z,11.3
2016-11-23T10:34:31.700Z,11.28
2016-11-23T10:35:31.689Z,11.27
2016-11-23T10:36:31.686Z,11.23
2016-11-23T10:37:31.677Z,11.3
2016-11-23T10:38:31.675Z,11.34
2016-11-23T10:39:31.662Z,11.42
2016-11-23T10:40:31.652Z,11.45
2016-11-23T10:41:31.646Z,11.45
2016-11-23T10:42:31.641Z,11.45
2016-11-23T10:43:31.639Z,11.39
2016-11-23T10:44:31.625Z,11.48
2016-11-23T10:45:31.616Z,11.45
2016-11-23T10:46:31.612Z,11.53
2016-11-23T10:47:31.598Z,11.49
2016-11-23T10:48:31.592Z,11.48
2016-11-23T10:49:31.586Z,11.49
2016-11-23T10:50:31.578Z,11.56
2016-11-23T10:51:31.571Z,11.49
2016-11-23T10:52:31.563Z,11.48
2016-11-23T10:53:31.562Z,11.46
2016-11-23T10:54:31.549Z,11.51
2016-11-23T10:55:31.540Z,11.63
2016-11-23T10:56:31.533Z,11.63
2016-11-23T10:57:31.552Z,11.64
2016-11-23T10:58:31.515Z,11.7
2016-11-23T10:59:31.510Z,11.66
2016-11-23T11:00:31.529Z,11.63
2016-11-23T11:01:31.491Z,11.66
2016-11-23T11:02:31.486Z,11.71
2016-11-23T11:03:31.477Z,11.82
2016-11-23T11:04:31.473Z,11.79
2016-11-23T11:05:31.462Z,11.85
2016-11-23T11:06:31.456Z,11.86
2016-11-23T11:07:31.451Z,11.94
2016-11-23T11:08:31.447Z,11.95
2016-11-23T11:09:31.436Z,11.94
2016-11-23T11:10:31.429Z,12.01
2016-11-23T11:11:31.422Z,12.03
2016-11-23T11:12:31.413Z,12.04
2016-11-23T11:13:31.408Z,12.01
2016-11-23T11:14:31.398Z,12.05
2016-11-23T11:15:31.398Z,12.07
2016-11-23T11:16:31.385Z,12.03
2016-11-23T11:17:31.381Z,12.05
2016-11-23T11:18:31.368Z,12.07
2016-11-23T11:19:31.363Z,12.13
2016-11-23T11:20:31.398Z,12.08
2016-11-23T11:21:31.346Z,12.07
2016-11-23T11:22:31.341Z,12.05
2016-11-23T11:23:31.335Z,12.05
2016-11-23T11:24:31.328Z,12.08
2016-11-23T11:25:31.320Z,12.13
2016-11-23T11:26:31.313Z,12.1
2016-11-23T11:27:31.307Z,12.1
2016-11-23T11:28:31.300Z,12.11
2016-11-23T11:29:31.288Z,12.1
2016-11-23T11:30:31.283Z,12.1
2016-11-23T11:31:31.279Z,12.19
2016-11-23T11:32:31.268Z,12.19
2016-11-23T11:33:31.260Z,12.22
2016-11-23T11:34:31.260Z,12.29
2016-11-23T11:35:31.251Z,12.31
2016-11-23T11:36:31.245Z,12.37
2016-11-23T11:37:31.234Z,12.38
2016-11-23T11:38:31.227Z,12.43
2016-11-23T11:39:31.220Z,12.44
2016-11-23T11:40:31.214Z,12.55
2016-11-23T11:41:31.206Z,12.47
2016-11-23T11:42:31.198Z,12.59
2016-11-23T11:43:31.191Z,12.61
2016-11-23T11:44:31.202Z,12.58
2016-11-23T11:45:31.497Z,12.65
2016-11-23T11:46:31.173Z,12.74
2016-11-23T11:47:31.187Z,12.76
2016-11-23T11:48:31.161Z,12.88
2016-11-23T11:49:31.154Z,12.96
2016-11-23T11:50:31.144Z,12.99
2016-11-23T11:51:31.140Z,13.09
2016-11-23T11:52:31.129Z,13.13
2016-11-23T11:53:31.126Z,13.14
2016-11-23T11:54:31.114Z,13.27
2016-11-23T11:55:31.113Z,13.24
2016-11-23T11:56:31.103Z,13.27
2016-11-23T11:57:31.097Z,13.27
2016-11-23T11:58:31.404Z,13.37
2016-11-23T11:59:31.086Z,13.4
2016-11-23T12:00:31.080Z,13.4
2016-11-23T12:01:31.073Z,13.44
2016-11-23T12:02:31.066Z,13.45
2016-11-23T12:03:31.061Z,13.45
2016-11-23T12:04:31.054Z,13.44
2016-11-23T12:05:31.046Z,13.44
2016-11-23T12:06:31.041Z,13.5
2016-11-23T12:07:31.055Z,13.57
2016-11-23T12:08:31.032Z,13.6
2016-11-23T12:09:31.028Z,13.51
2016-11-23T12:10:31.014Z,13.55
2016-11-23T12:11:31.011Z,13.66
2016-11-23T12:12:31.004Z,13.55
2016-11-23T12:13:30.999Z,13.65
2016-11-23T12:14:31.004Z,13.58
2016-11-23T12:15:30.986Z,13.54
2016-11-23T12:16:30.982Z,13.62
2016-11-23T12:17:30.976Z,13.55
2016-11-23T12:18:30.970Z,13.51
2016-11-23T12:19:30.962Z,13.53
2016-11-23T12:20:30.977Z,13.5
2016-11-23T12:21:30.952Z,13.53
2016-11-23T12:22:30.953Z,13.42
2016-11-23T12:23:30.938Z,13.36
2016-11-23T12:24:30.939Z,13.29
2016-11-23T12:25:30.932Z,13.35
2016-11-23T12:26:30.918Z,13.2
2016-11-23T12:27:30.912Z,13.28
2016-11-23T12:28:30.907Z,13.19
2016-11-23T12:29:30.910Z,13.17
2016-11-23T12:30:30.895Z,13.09
2016-11-23T12:31:30.888Z,13.01
2016-11-23T12:32:30.884Z,12.91
2016-11-23T12:33:30.885Z,12.98
2016-11-23T12:34:30.871Z,12.92
2016-11-23T12:35:30.867Z,12.88
2016-11-23T12:36:30.858Z,12.94
2016-11-23T12:37:31.168Z,12.89
2016-11-23T12:38:30.849Z,12.81
2016-11-23T12:39:30.846Z,12.88
2016-11-23T12:40:30.834Z,12.83
2016-11-23T12:41:30.826Z,12.76
2016-11-23T12:42:30.821Z,12.73
2016-11-23T12:43:30.821Z,12.74
2016-11-23T12:44:30.816Z,12.73
2016-11-23T12:45:30.803Z,12.69
2016-11-23T12:46:30.803Z,12.65
2016-11-23T12:47:30.797Z,12.73
2016-11-23T12:48:30.816Z,12.66
2016-11-23T12:49:30.779Z,12.65
2016-11-23T12:50:30.796Z,12.63
2016-11-23T12:51:30.764Z,12.61
2016-11-23T12:52:30.765Z,12.56
2016-11-23T12:53:30.755Z,12.59
2016-11-23T12:54:31.061Z,12.58
2016-11-23T12:55:30.740Z,12.56
2016-11-23T12:56:30.764Z,12.62
2016-11-23T12:57:30.734Z,12.69
2016-11-23T12:58:30.720Z,12.65
2016-11-23T12:59:30.719Z,12.61
2016-11-23T13:00:30.764Z,12.62
2016-11-23T13:01:30.706Z,12.55
2016-11-23T13:02:30.697Z,12.58
2016-11-23T13:03:30.692Z,12.53
2016-11-23T13:04:30.682Z,12.61
2016-11-23T13:05:30.676Z,12.59
2016-11-23T13:06:30.670Z,12.66
2016-11-23T13:07:30.667Z,12.62
2016-11-23T13:08:30.663Z,12.65
2016-11-23T13:09:30.649Z,12.63
2016-11-23T13:10:30.645Z,12.65
2016-11-23T13:11:30.636Z,12.65
2016-11-23T13:12:30.634Z,12.74
2016-11-23T13:13:30.625Z,12.7
2016-11-23T13:14:30.620Z,12.66